sensor_id;sensor_type;location;lat;lon;timestamp;P1;durP1;ratioP1;P2;durP2;ratioP2
26806;SDS011;14380;49.910;6.792;2023-08-30T00:00:24;1.17;;;0.73;;
26806;SDS011;14380;49.910;6.792;2023-08-30T00:02:51;1.63;;;0.68;;
26806;SDS011;14380;49.910;6.792;2023-08-30T00:05:17;1.33;;;0.73;;
26806;SDS011;14380;49.910;6.792;2023-08-30T00:07:44;2.30;;;1.10;;
26806;SDS011;14380;49.910;6.792;2023-08-30T00:10:10;0.80;;;0.80;;
26806;SDS011;14380;49.910;6.792;2023-08-30T00:12:37;0.60;;;0.57;;
26806;SDS011;14380;49.910;6.792;2023-08-30T00:15:06;1.50;;;1.00;;
26806;SDS011;14380;49.910;6.792;2023-08-30T00:17:33;0.95;;;0.52;;
26806;SDS011;14380;49.910;6.792;2023-08-30T00:20:00;0.47;;;0.40;;
26806;SDS011;14380;49.910;6.792;2023-08-30T00:22:27;0.60;;;0.60;;
26806;SDS011;14380;49.910;6.792;2023-08-30T00:24:54;0.50;;;0.50;;
26806;SDS011;14380;49.910;6.792;2023-08-30T00:27:20;0.52;;;0.52;;
26806;SDS011;14380;49.910;6.792;2023-08-30T00:29:47;0.65;;;0.60;;
26806;SDS011;14380;49.910;6.792;2023-08-30T00:32:15;0.95;;;0.70;;
26806;SDS011;14380;49.910;6.792;2023-08-30T00:34:42;0.77;;;0.50;;
26806;SDS011;14380;49.910;6.792;2023-08-30T00:37:08;0.93;;;0.60;;
26806;SDS011;14380;49.910;6.792;2023-08-30T00:39:37;0.47;;;0.30;;
26806;SDS011;14380;49.910;6.792;2023-08-30T00:42:04;1.00;;;0.88;;
26806;SDS011;14380;49.910;6.792;2023-08-30T00:44:32;2.15;;;0.40;;
26806;SDS011;14380;49.910;6.792;2023-08-30T00:46:59;0.65;;;0.65;;
26806;SDS011;14380;49.910;6.792;2023-08-30T00:49:28;0.43;;;0.43;;
26806;SDS011;14380;49.910;6.792;2023-08-30T00:51:55;0.60;;;0.50;;
26806;SDS011;14380;49.910;6.792;2023-08-30T00:54:23;0.50;;;0.50;;
26806;SDS011;14380;49.910;6.792;2023-08-30T00:56:50;0.45;;;0.45;;
26806;SDS011;14380;49.910;6.792;2023-08-30T00:59:17;0.50;;;0.50;;
26806;SDS011;14380;49.910;6.792;2023-08-30T01:01:44;0.52;;;0.52;;
26806;SDS011;14380;49.910;6.792;2023-08-30T01:04:11;0.75;;;0.75;;
26806;SDS011;14380;49.910;6.792;2023-08-30T01:06:39;2.17;;;0.70;;
26806;SDS011;14380;49.910;6.792;2023-08-30T01:09:06;1.13;;;0.82;;
26806;SDS011;14380;49.910;6.792;2023-08-30T01:11:36;0.95;;;0.85;;
26806;SDS011;14380;49.910;6.792;2023-08-30T01:14:07;0.38;;;0.35;;
26806;SDS011;14380;49.910;6.792;2023-08-30T01:16:35;1.75;;;0.75;;
26806;SDS011;14380;49.910;6.792;2023-08-30T01:19:04;0.70;;;0.50;;
26806;SDS011;14380;49.910;6.792;2023-08-30T01:21:47;1.05;;;0.57;;
26806;SDS011;14380;49.910;6.792;2023-08-30T01:26:58;0.38;;;0.38;;
26806;SDS011;14380;49.910;6.792;2023-08-30T01:29:33;0.75;;;0.60;;
26806;SDS011;14380;49.910;6.792;2023-08-30T01:32:03;1.52;;;0.30;;
26806;SDS011;14380;49.910;6.792;2023-08-30T01:34:31;0.60;;;0.60;;
26806;SDS011;14380;49.910;6.792;2023-08-30T01:36:59;1.60;;;1.27;;
26806;SDS011;14380;49.910;6.792;2023-08-30T01:39:26;0.63;;;0.57;;
26806;SDS011;14380;49.910;6.792;2023-08-30T01:41:54;2.72;;;0.60;;
26806;SDS011;14380;49.910;6.792;2023-08-30T01:44:25;0.50;;;0.40;;
26806;SDS011;14380;49.910;6.792;2023-08-30T01:46:53;0.60;;;0.60;;
26806;SDS011;14380;49.910;6.792;2023-08-30T01:49:21;0.50;;;0.40;;
26806;SDS011;14380;49.910;6.792;2023-08-30T01:51:48;1.30;;;0.75;;
26806;SDS011;14380;49.910;6.792;2023-08-30T01:54:17;0.90;;;0.70;;
26806;SDS011;14380;49.910;6.792;2023-08-30T01:56:45;0.93;;;0.52;;
26806;SDS011;14380;49.910;6.792;2023-08-30T01:59:12;0.90;;;0.77;;
26806;SDS011;14380;49.910;6.792;2023-08-30T02:01:42;1.20;;;0.75;;
26806;SDS011;14380;49.910;6.792;2023-08-30T02:04:08;0.43;;;0.40;;
26806;SDS011;14380;49.910;6.792;2023-08-30T02:06:35;0.60;;;0.60;;
26806;SDS011;14380;49.910;6.792;2023-08-30T02:09:09;0.70;;;0.70;;
26806;SDS011;14380;49.910;6.792;2023-08-30T02:11:41;0.35;;;0.35;;
26806;SDS011;14380;49.910;6.792;2023-08-30T02:14:10;0.98;;;0.60;;
26806;SDS011;14380;49.910;6.792;2023-08-30T02:16:43;0.63;;;0.60;;
26806;SDS011;14380;49.910;6.792;2023-08-30T02:19:12;0.60;;;0.35;;
26806;SDS011;14380;49.910;6.792;2023-08-30T02:21:41;1.00;;;0.85;;
26806;SDS011;14380;49.910;6.792;2023-08-30T02:24:08;1.55;;;0.60;;
26806;SDS011;14380;49.910;6.792;2023-08-30T02:26:35;0.52;;;0.50;;
26806;SDS011;14380;49.910;6.792;2023-08-30T02:29:02;0.40;;;0.40;;
26806;SDS011;14380;49.910;6.792;2023-08-30T02:31:29;0.50;;;0.50;;
26806;SDS011;14380;49.910;6.792;2023-08-30T02:33:57;1.75;;;0.80;;
26806;SDS011;14380;49.910;6.792;2023-08-30T02:36:23;1.27;;;0.70;;
26806;SDS011;14380;49.910;6.792;2023-08-30T02:38:50;0.45;;;0.40;;
26806;SDS011;14380;49.910;6.792;2023-08-30T02:41:17;0.70;;;0.60;;
26806;SDS011;14380;49.910;6.792;2023-08-30T02:43:43;0.57;;;0.57;;
26806;SDS011;14380;49.910;6.792;2023-08-30T02:46:10;0.68;;;0.50;;
26806;SDS011;14380;49.910;6.792;2023-08-30T02:48:37;0.60;;;0.60;;
26806;SDS011;14380;49.910;6.792;2023-08-30T02:51:05;0.80;;;0.65;;
26806;SDS011;14380;49.910;6.792;2023-08-30T02:53:31;0.55;;;0.55;;
26806;SDS011;14380;49.910;6.792;2023-08-30T02:55:58;0.60;;;0.60;;
26806;SDS011;14380;49.910;6.792;2023-08-30T02:58:24;0.73;;;0.52;;
26806;SDS011;14380;49.910;6.792;2023-08-30T03:00:52;0.32;;;0.32;;
26806;SDS011;14380;49.910;6.792;2023-08-30T03:03:19;0.65;;;0.65;;
26806;SDS011;14380;49.910;6.792;2023-08-30T03:05:45;1.02;;;0.57;;
26806;SDS011;14380;49.910;6.792;2023-08-30T03:08:13;0.70;;;0.70;;
26806;SDS011;14380;49.910;6.792;2023-08-30T03:10:40;0.63;;;0.50;;
26806;SDS011;14380;49.910;6.792;2023-08-30T03:13:06;0.35;;;0.35;;
26806;SDS011;14380;49.910;6.792;2023-08-30T03:15:33;0.77;;;0.65;;
26806;SDS011;14380;49.910;6.792;2023-08-30T03:17:59;0.80;;;0.63;;
26806;SDS011;14380;49.910;6.792;2023-08-30T03:20:26;0.82;;;0.82;;
26806;SDS011;14380;49.910;6.792;2023-08-30T03:22:54;0.88;;;0.80;;
26806;SDS011;14380;49.910;6.792;2023-08-30T03:25:23;0.80;;;0.70;;
26806;SDS011;14380;49.910;6.792;2023-08-30T03:27:50;1.05;;;0.47;;
26806;SDS011;14380;49.910;6.792;2023-08-30T03:30:16;0.73;;;0.73;;
26806;SDS011;14380;49.910;6.792;2023-08-30T03:32:43;0.50;;;0.50;;
26806;SDS011;14380;49.910;6.792;2023-08-30T03:35:09;0.75;;;0.75;;
26806;SDS011;14380;49.910;6.792;2023-08-30T03:37:36;1.23;;;0.60;;
26806;SDS011;14380;49.910;6.792;2023-08-30T03:40:03;0.95;;;0.60;;
26806;SDS011;14380;49.910;6.792;2023-08-30T03:42:32;1.15;;;0.88;;
26806;SDS011;14380;49.910;6.792;2023-08-30T03:44:59;0.70;;;0.70;;
26806;SDS011;14380;49.910;6.792;2023-08-30T03:47:26;0.40;;;0.40;;
26806;SDS011;14380;49.910;6.792;2023-08-30T03:49:52;1.10;;;0.90;;
26806;SDS011;14380;49.910;6.792;2023-08-30T03:52:19;0.50;;;0.50;;
26806;SDS011;14380;49.910;6.792;2023-08-30T03:54:45;0.43;;;0.30;;
26806;SDS011;14380;49.910;6.792;2023-08-30T03:57:12;0.80;;;0.70;;
26806;SDS011;14380;49.910;6.792;2023-08-30T03:59:40;1.23;;;0.55;;
26806;SDS011;14380;49.910;6.792;2023-08-30T04:02:06;0.65;;;0.65;;
26806;SDS011;14380;49.910;6.792;2023-08-30T04:04:33;0.40;;;0.40;;
26806;SDS011;14380;49.910;6.792;2023-08-30T04:06:59;0.68;;;0.68;;
26806;SDS011;14380;49.910;6.792;2023-08-30T04:09:26;1.83;;;1.00;;
26806;SDS011;14380;49.910;6.792;2023-08-30T04:11:53;5.47;;;1.55;;
26806;SDS011;14380;49.910;6.792;2023-08-30T04:14:19;0.63;;;0.50;;
26806;SDS011;14380;49.910;6.792;2023-08-30T04:16:47;1.40;;;0.60;;
26806;SDS011;14380;49.910;6.792;2023-08-30T04:19:13;1.38;;;0.85;;
26806;SDS011;14380;49.910;6.792;2023-08-30T04:21:40;0.88;;;0.60;;
26806;SDS011;14380;49.910;6.792;2023-08-30T04:24:07;1.35;;;0.90;;
26806;SDS011;14380;49.910;6.792;2023-08-30T04:26:33;0.90;;;0.85;;
26806;SDS011;14380;49.910;6.792;2023-08-30T04:29:00;0.47;;;0.40;;
26806;SDS011;14380;49.910;6.792;2023-08-30T04:31:28;0.75;;;0.57;;
26806;SDS011;14380;49.910;6.792;2023-08-30T04:33:56;0.52;;;0.43;;
26806;SDS011;14380;49.910;6.792;2023-08-30T04:36:24;0.43;;;0.43;;
26806;SDS011;14380;49.910;6.792;2023-08-30T04:38:51;1.10;;;1.00;;
26806;SDS011;14380;49.910;6.792;2023-08-30T04:41:18;0.57;;;0.57;;
26806;SDS011;14380;49.910;6.792;2023-08-30T04:43:45;0.95;;;0.88;;
26806;SDS011;14380;49.910;6.792;2023-08-30T04:46:11;0.60;;;0.60;;
26806;SDS011;14380;49.910;6.792;2023-08-30T04:48:38;0.70;;;0.70;;
26806;SDS011;14380;49.910;6.792;2023-08-30T04:51:05;1.48;;;1.38;;
26806;SDS011;14380;49.910;6.792;2023-08-30T04:53:32;0.82;;;0.60;;
26806;SDS011;14380;49.910;6.792;2023-08-30T04:55:58;0.63;;;0.50;;
26806;SDS011;14380;49.910;6.792;2023-08-30T04:58:25;1.08;;;0.90;;
26806;SDS011;14380;49.910;6.792;2023-08-30T05:00:52;0.57;;;0.50;;
26806;SDS011;14380;49.910;6.792;2023-08-30T05:03:20;0.60;;;0.52;;
26806;SDS011;14380;49.910;6.792;2023-08-30T05:05:47;1.13;;;0.98;;
26806;SDS011;14380;49.910;6.792;2023-08-30T05:08:15;2.25;;;0.70;;
26806;SDS011;14380;49.910;6.792;2023-08-30T05:10:41;1.30;;;0.93;;
26806;SDS011;14380;49.910;6.792;2023-08-30T05:13:09;1.65;;;1.27;;
26806;SDS011;14380;49.910;6.792;2023-08-30T05:15:36;2.25;;;1.25;;
26806;SDS011;14380;49.910;6.792;2023-08-30T05:18:03;1.48;;;1.00;;
26806;SDS011;14380;49.910;6.792;2023-08-30T05:20:30;1.05;;;0.90;;
26806;SDS011;14380;49.910;6.792;2023-08-30T05:22:56;0.95;;;0.80;;
26806;SDS011;14380;49.910;6.792;2023-08-30T05:25:26;1.30;;;0.95;;
26806;SDS011;14380;49.910;6.792;2023-08-30T05:27:52;1.73;;;1.38;;
26806;SDS011;14380;49.910;6.792;2023-08-30T05:30:19;1.48;;;0.85;;
26806;SDS011;14380;49.910;6.792;2023-08-30T05:32:45;1.23;;;0.77;;
26806;SDS011;14380;49.910;6.792;2023-08-30T05:35:12;1.20;;;1.10;;
26806;SDS011;14380;49.910;6.792;2023-08-30T05:37:38;1.60;;;0.80;;
26806;SDS011;14380;49.910;6.792;2023-08-30T05:40:05;1.27;;;1.15;;
26806;SDS011;14380;49.910;6.792;2023-08-30T05:42:34;1.10;;;0.98;;
26806;SDS011;14380;49.910;6.792;2023-08-30T05:45:01;1.33;;;1.13;;
26806;SDS011;14380;49.910;6.792;2023-08-30T05:47:28;1.13;;;1.02;;
26806;SDS011;14380;49.910;6.792;2023-08-30T05:49:55;0.63;;;0.63;;
26806;SDS011;14380;49.910;6.792;2023-08-30T05:52:21;2.58;;;1.73;;
26806;SDS011;14380;49.910;6.792;2023-08-30T05:54:50;1.02;;;0.93;;
26806;SDS011;14380;49.910;6.792;2023-08-30T05:57:16;2.58;;;1.58;;
26806;SDS011;14380;49.910;6.792;2023-08-30T05:59:45;2.35;;;1.33;;
26806;SDS011;14380;49.910;6.792;2023-08-30T06:02:11;2.28;;;1.33;;
26806;SDS011;14380;49.910;6.792;2023-08-30T06:04:39;2.13;;;1.20;;
26806;SDS011;14380;49.910;6.792;2023-08-30T06:07:05;1.77;;;1.20;;
26806;SDS011;14380;49.910;6.792;2023-08-30T06:09:33;3.55;;;1.10;;
26806;SDS011;14380;49.910;6.792;2023-08-30T06:11:59;1.63;;;1.27;;
26806;SDS011;14380;49.910;6.792;2023-08-30T06:14:26;2.60;;;1.65;;
26806;SDS011;14380;49.910;6.792;2023-08-30T06:16:54;2.78;;;1.63;;
26806;SDS011;14380;49.910;6.792;2023-08-30T06:19:20;2.30;;;1.60;;
26806;SDS011;14380;49.910;6.792;2023-08-30T06:21:47;3.03;;;1.63;;
26806;SDS011;14380;49.910;6.792;2023-08-30T06:24:13;1.05;;;0.93;;
26806;SDS011;14380;49.910;6.792;2023-08-30T06:26:40;2.22;;;1.35;;
26806;SDS011;14380;49.910;6.792;2023-08-30T06:29:07;2.08;;;1.30;;
26806;SDS011;14380;49.910;6.792;2023-08-30T06:31:33;4.03;;;1.77;;
26806;SDS011;14380;49.910;6.792;2023-08-30T06:34:01;1.70;;;1.27;;
26806;SDS011;14380;49.910;6.792;2023-08-30T06:36:27;2.17;;;1.55;;
26806;SDS011;14380;49.910;6.792;2023-08-30T06:38:56;2.42;;;2.13;;
26806;SDS011;14380;49.910;6.792;2023-08-30T06:41:22;1.77;;;1.40;;
26806;SDS011;14380;49.910;6.792;2023-08-30T06:43:49;2.65;;;1.75;;
26806;SDS011;14380;49.910;6.792;2023-08-30T06:46:16;2.92;;;1.77;;
26806;SDS011;14380;49.910;6.792;2023-08-30T06:48:42;3.65;;;2.50;;
26806;SDS011;14380;49.910;6.792;2023-08-30T06:51:11;3.42;;;2.45;;
26806;SDS011;14380;49.910;6.792;2023-08-30T06:53:37;2.58;;;1.42;;
26806;SDS011;14380;49.910;6.792;2023-08-30T06:56:04;2.92;;;2.15;;
26806;SDS011;14380;49.910;6.792;2023-08-30T06:58:30;2.10;;;1.55;;
26806;SDS011;14380;49.910;6.792;2023-08-30T07:00:57;3.45;;;2.08;;
26806;SDS011;14380;49.910;6.792;2023-08-30T07:03:24;1.77;;;1.50;;
26806;SDS011;14380;49.910;6.792;2023-08-30T07:05:51;3.97;;;1.95;;
26806;SDS011;14380;49.910;6.792;2023-08-30T07:08:19;4.30;;;2.08;;
26806;SDS011;14380;49.910;6.792;2023-08-30T07:10:45;2.33;;;1.83;;
26806;SDS011;14380;49.910;6.792;2023-08-30T07:13:12;4.07;;;2.58;;
26806;SDS011;14380;49.910;6.792;2023-08-30T07:15:39;3.72;;;2.13;;
26806;SDS011;14380;49.910;6.792;2023-08-30T07:18:06;2.88;;;1.58;;
26806;SDS011;14380;49.910;6.792;2023-08-30T07:20:33;2.47;;;1.77;;
26806;SDS011;14380;49.910;6.792;2023-08-30T07:23:01;3.50;;;2.05;;
26806;SDS011;14380;49.910;6.792;2023-08-30T07:25:30;4.60;;;1.67;;
26806;SDS011;14380;49.910;6.792;2023-08-30T07:27:58;2.95;;;1.55;;
26806;SDS011;14380;49.910;6.792;2023-08-30T07:30:25;2.63;;;2.42;;
26806;SDS011;14380;49.910;6.792;2023-08-30T07:32:51;3.90;;;1.77;;
26806;SDS011;14380;49.910;6.792;2023-08-30T07:35:18;4.80;;;2.83;;
26806;SDS011;14380;49.910;6.792;2023-08-30T07:37:44;3.35;;;2.22;;
26806;SDS011;14380;49.910;6.792;2023-08-30T07:40:12;4.53;;;2.13;;
26806;SDS011;14380;49.910;6.792;2023-08-30T07:42:40;4.50;;;2.28;;
26806;SDS011;14380;49.910;6.792;2023-08-30T07:45:07;3.63;;;1.95;;
26806;SDS011;14380;49.910;6.792;2023-08-30T07:47:35;4.22;;;2.67;;
26806;SDS011;14380;49.910;6.792;2023-08-30T07:50:04;4.78;;;2.67;;
26806;SDS011;14380;49.910;6.792;2023-08-30T07:52:31;4.15;;;2.83;;
26806;SDS011;14380;49.910;6.792;2023-08-30T07:54:57;3.55;;;2.50;;
26806;SDS011;14380;49.910;6.792;2023-08-30T07:57:24;3.38;;;2.42;;
26806;SDS011;14380;49.910;6.792;2023-08-30T07:59:52;3.65;;;2.50;;
26806;SDS011;14380;49.910;6.792;2023-08-30T08:02:19;2.80;;;2.28;;
26806;SDS011;14380;49.910;6.792;2023-08-30T08:04:45;3.10;;;2.65;;
26806;SDS011;14380;49.910;6.792;2023-08-30T08:07:15;3.45;;;2.97;;
26806;SDS011;14380;49.910;6.792;2023-08-30T08:09:41;2.95;;;2.17;;
26806;SDS011;14380;49.910;6.792;2023-08-30T08:12:08;4.00;;;2.65;;
26806;SDS011;14380;49.910;6.792;2023-08-30T08:14:34;3.90;;;2.38;;
26806;SDS011;14380;49.910;6.792;2023-08-30T08:17:04;4.10;;;3.05;;
26806;SDS011;14380;49.910;6.792;2023-08-30T08:19:30;4.80;;;3.03;;
26806;SDS011;14380;49.910;6.792;2023-08-30T08:21:57;2.83;;;2.13;;
26806;SDS011;14380;49.910;6.792;2023-08-30T08:24:23;3.55;;;2.72;;
26806;SDS011;14380;49.910;6.792;2023-08-30T08:26:50;2.78;;;1.65;;
26806;SDS011;14380;49.910;6.792;2023-08-30T08:29:17;3.05;;;2.28;;
26806;SDS011;14380;49.910;6.792;2023-08-30T08:31:43;3.00;;;2.55;;
26806;SDS011;14380;49.910;6.792;2023-08-30T08:34:12;5.63;;;2.60;;
26806;SDS011;14380;49.910;6.792;2023-08-30T08:36:39;4.07;;;2.72;;
26806;SDS011;14380;49.910;6.792;2023-08-30T08:39:08;5.63;;;2.22;;
26806;SDS011;14380;49.910;6.792;2023-08-30T08:41:35;2.28;;;2.00;;
26806;SDS011;14380;49.910;6.792;2023-08-30T08:44:06;3.88;;;2.17;;
26806;SDS011;14380;49.910;6.792;2023-08-30T08:46:34;3.13;;;1.73;;
26806;SDS011;14380;49.910;6.792;2023-08-30T08:49:02;2.78;;;1.38;;
26806;SDS011;14380;49.910;6.792;2023-08-30T08:51:36;2.13;;;1.58;;
26806;SDS011;14380;49.910;6.792;2023-08-30T08:54:04;2.90;;;1.60;;
26806;SDS011;14380;49.910;6.792;2023-08-30T08:56:31;2.42;;;1.80;;
26806;SDS011;14380;49.910;6.792;2023-08-30T08:58:59;2.17;;;1.40;;
26806;SDS011;14380;49.910;6.792;2023-08-30T09:01:25;3.47;;;1.90;;
26806;SDS011;14380;49.910;6.792;2023-08-30T09:03:52;1.65;;;1.10;;
26806;SDS011;14380;49.910;6.792;2023-08-30T09:06:19;1.58;;;1.33;;
26806;SDS011;14380;49.910;6.792;2023-08-30T09:08:48;2.50;;;1.77;;
26806;SDS011;14380;49.910;6.792;2023-08-30T09:11:15;2.72;;;1.48;;
26806;SDS011;14380;49.910;6.792;2023-08-30T09:13:42;2.33;;;1.25;;
26806;SDS011;14380;49.910;6.792;2023-08-30T09:16:12;2.70;;;1.67;;
26806;SDS011;14380;49.910;6.792;2023-08-30T09:18:39;2.65;;;1.48;;
26806;SDS011;14380;49.910;6.792;2023-08-30T09:21:06;1.92;;;1.02;;
26806;SDS011;14380;49.910;6.792;2023-08-30T09:23:33;2.78;;;1.27;;
26806;SDS011;14380;49.910;6.792;2023-08-30T09:26:02;1.40;;;1.10;;
26806;SDS011;14380;49.910;6.792;2023-08-30T09:28:29;1.42;;;0.95;;
26806;SDS011;14380;49.910;6.792;2023-08-30T09:30:57;2.50;;;1.08;;
26806;SDS011;14380;49.910;6.792;2023-08-30T09:33:29;0.73;;;0.73;;
26806;SDS011;14380;49.910;6.792;2023-08-30T09:35:58;2.72;;;1.73;;
26806;SDS011;14380;49.910;6.792;2023-08-30T09:38:24;3.42;;;1.10;;
26806;SDS011;14380;49.910;6.792;2023-08-30T09:40:51;1.73;;;1.02;;
26806;SDS011;14380;49.910;6.792;2023-08-30T09:43:19;3.97;;;1.55;;
26806;SDS011;14380;49.910;6.792;2023-08-30T09:45:48;2.22;;;1.33;;
26806;SDS011;14380;49.910;6.792;2023-08-30T09:48:16;1.20;;;1.10;;
26806;SDS011;14380;49.910;6.792;2023-08-30T09:50:46;2.30;;;1.40;;
26806;SDS011;14380;49.910;6.792;2023-08-30T09:53:18;2.47;;;1.17;;
26806;SDS011;14380;49.910;6.792;2023-08-30T09:55:47;2.67;;;1.42;;
26806;SDS011;14380;49.910;6.792;2023-08-30T09:58:15;1.98;;;1.02;;
26806;SDS011;14380;49.910;6.792;2023-08-30T10:00:43;2.33;;;1.00;;
26806;SDS011;14380;49.910;6.792;2023-08-30T10:03:10;1.13;;;1.02;;
26806;SDS011;14380;49.910;6.792;2023-08-30T10:05:37;1.58;;;0.75;;
26806;SDS011;14380;49.910;6.792;2023-08-30T10:08:07;1.48;;;1.10;;
26806;SDS011;14380;49.910;6.792;2023-08-30T10:10:35;1.33;;;0.85;;
26806;SDS011;14380;49.910;6.792;2023-08-30T10:13:03;1.83;;;0.68;;
26806;SDS011;14380;49.910;6.792;2023-08-30T10:15:32;1.80;;;1.08;;
26806;SDS011;14380;49.910;6.792;2023-08-30T10:18:01;0.90;;;0.70;;
26806;SDS011;14380;49.910;6.792;2023-08-30T10:20:30;0.90;;;0.90;;
26806;SDS011;14380;49.910;6.792;2023-08-30T10:22:57;1.60;;;0.73;;
26806;SDS011;14380;49.910;6.792;2023-08-30T10:25:26;2.15;;;0.80;;
26806;SDS011;14380;49.910;6.792;2023-08-30T10:27:57;1.75;;;1.30;;
26806;SDS011;14380;49.910;6.792;2023-08-30T10:30:24;2.08;;;1.05;;
26806;SDS011;14380;49.910;6.792;2023-08-30T10:32:51;1.45;;;1.10;;
26806;SDS011;14380;49.910;6.792;2023-08-30T10:35:19;0.95;;;0.60;;
26806;SDS011;14380;49.910;6.792;2023-08-30T10:37:55;1.85;;;0.77;;
26806;SDS011;14380;49.910;6.792;2023-08-30T10:40:22;1.60;;;1.00;;
26806;SDS011;14380;49.910;6.792;2023-08-30T10:42:58;3.08;;;1.27;;
26806;SDS011;14380;49.910;6.792;2023-08-30T10:45:25;1.23;;;1.00;;
26806;SDS011;14380;49.910;6.792;2023-08-30T10:47:54;2.45;;;1.38;;
26806;SDS011;14380;49.910;6.792;2023-08-30T10:50:28;1.20;;;1.05;;
26806;SDS011;14380;49.910;6.792;2023-08-30T10:52:56;1.90;;;0.77;;
26806;SDS011;14380;49.910;6.792;2023-08-30T10:55:23;0.85;;;0.73;;
26806;SDS011;14380;49.910;6.792;2023-08-30T10:57:57;0.85;;;0.60;;
26806;SDS011;14380;49.910;6.792;2023-08-30T11:00:29;1.60;;;0.70;;
26806;SDS011;14380;49.910;6.792;2023-08-30T11:02:57;2.22;;;0.75;;
26806;SDS011;14380;49.910;6.792;2023-08-30T11:05:25;1.08;;;0.90;;
26806;SDS011;14380;49.910;6.792;2023-08-30T11:07:54;1.63;;;0.85;;
26806;SDS011;14380;49.910;6.792;2023-08-30T11:10:20;0.75;;;0.50;;
26806;SDS011;14380;49.910;6.792;2023-08-30T11:12:48;1.38;;;0.70;;
26806;SDS011;14380;49.910;6.792;2023-08-30T11:15:15;3.22;;;1.13;;
26806;SDS011;14380;49.910;6.792;2023-08-30T11:17:42;1.92;;;1.00;;
26806;SDS011;14380;49.910;6.792;2023-08-30T11:20:10;1.75;;;0.75;;
26806;SDS011;14380;49.910;6.792;2023-08-30T11:22:39;0.95;;;0.63;;
26806;SDS011;14380;49.910;6.792;2023-08-30T11:25:10;0.90;;;0.90;;
26806;SDS011;14380;49.910;6.792;2023-08-30T11:27:37;0.82;;;0.75;;
26806;SDS011;14380;49.910;6.792;2023-08-30T11:30:05;1.15;;;0.52;;
26806;SDS011;14380;49.910;6.792;2023-08-30T11:32:33;2.67;;;0.80;;
26806;SDS011;14380;49.910;6.792;2023-08-30T11:35:00;1.40;;;0.75;;
26806;SDS011;14380;49.910;6.792;2023-08-30T11:37:27;0.50;;;0.50;;
26806;SDS011;14380;49.910;6.792;2023-08-30T11:39:54;1.50;;;0.70;;
26806;SDS011;14380;49.910;6.792;2023-08-30T11:42:23;0.52;;;0.52;;
26806;SDS011;14380;49.910;6.792;2023-08-30T11:44:50;1.13;;;0.60;;
26806;SDS011;14380;49.910;6.792;2023-08-30T11:47:18;0.75;;;0.45;;
26806;SDS011;14380;49.910;6.792;2023-08-30T11:49:46;3.05;;;0.70;;
26806;SDS011;14380;49.910;6.792;2023-08-30T11:52:14;0.63;;;0.60;;
26806;SDS011;14380;49.910;6.792;2023-08-30T11:54:41;3.83;;;1.35;;
26806;SDS011;14380;49.910;6.792;2023-08-30T11:57:08;3.05;;;1.20;;
26806;SDS011;14380;49.910;6.792;2023-08-30T11:59:37;0.40;;;0.40;;
26806;SDS011;14380;49.910;6.792;2023-08-30T12:02:04;1.23;;;0.50;;
26806;SDS011;14380;49.910;6.792;2023-08-30T12:04:32;0.75;;;0.50;;
26806;SDS011;14380;49.910;6.792;2023-08-30T12:07:05;1.30;;;0.45;;
26806;SDS011;14380;49.910;6.792;2023-08-30T12:09:32;1.90;;;1.00;;
26806;SDS011;14380;49.910;6.792;2023-08-30T12:12:04;1.10;;;0.80;;
26806;SDS011;14380;49.910;6.792;2023-08-30T12:14:34;0.95;;;0.52;;
26806;SDS011;14380;49.910;6.792;2023-08-30T12:17:02;1.95;;;0.82;;
26806;SDS011;14380;49.910;6.792;2023-08-30T12:19:29;1.48;;;0.70;;
26806;SDS011;14380;49.910;6.792;2023-08-30T12:22:02;0.85;;;0.63;;
26806;SDS011;14380;49.910;6.792;2023-08-30T12:24:39;0.85;;;0.60;;
26806;SDS011;14380;49.910;6.792;2023-08-30T12:27:06;0.85;;;0.50;;
26806;SDS011;14380;49.910;6.792;2023-08-30T12:29:33;1.92;;;0.80;;
26806;SDS011;14380;49.910;6.792;2023-08-30T12:32:03;0.60;;;0.50;;
26806;SDS011;14380;49.910;6.792;2023-08-30T12:34:30;1.42;;;0.70;;
26806;SDS011;14380;49.910;6.792;2023-08-30T12:36:56;0.60;;;0.35;;
26806;SDS011;14380;49.910;6.792;2023-08-30T12:39:23;0.52;;;0.50;;
26806;SDS011;14380;49.910;6.792;2023-08-30T12:41:52;1.08;;;0.50;;
26806;SDS011;14380;49.910;6.792;2023-08-30T12:44:19;1.02;;;0.50;;
26806;SDS011;14380;49.910;6.792;2023-08-30T12:46:45;1.60;;;0.85;;
26806;SDS011;14380;49.910;6.792;2023-08-30T12:49:13;0.90;;;0.30;;
26806;SDS011;14380;49.910;6.792;2023-08-30T12:51:40;1.40;;;0.80;;
26806;SDS011;14380;49.910;6.792;2023-08-30T12:54:06;0.77;;;0.70;;
26806;SDS011;14380;49.910;6.792;2023-08-30T12:56:33;1.55;;;0.40;;
26806;SDS011;14380;49.910;6.792;2023-08-30T12:58:59;0.93;;;0.52;;
26806;SDS011;14380;49.910;6.792;2023-08-30T13:01:26;0.77;;;0.60;;
26806;SDS011;14380;49.910;6.792;2023-08-30T13:03:52;2.10;;;0.98;;
26806;SDS011;14380;49.910;6.792;2023-08-30T13:06:20;2.38;;;0.50;;
26806;SDS011;14380;49.910;6.792;2023-08-30T13:08:47;0.60;;;0.40;;
26806;SDS011;14380;49.910;6.792;2023-08-30T13:11:13;1.10;;;0.70;;
26806;SDS011;14380;49.910;6.792;2023-08-30T13:13:41;0.93;;;0.60;;
26806;SDS011;14380;49.910;6.792;2023-08-30T13:16:08;3.25;;;0.57;;
26806;SDS011;14380;49.910;6.792;2023-08-30T13:18:34;1.63;;;1.17;;
26806;SDS011;14380;49.910;6.792;2023-08-30T13:21:01;0.60;;;0.43;;
26806;SDS011;14380;49.910;6.792;2023-08-30T13:23:30;0.73;;;0.40;;
26806;SDS011;14380;49.910;6.792;2023-08-30T13:25:57;0.80;;;0.80;;
26806;SDS011;14380;49.910;6.792;2023-08-30T13:28:23;0.55;;;0.50;;
26806;SDS011;14380;49.910;6.792;2023-08-30T13:30:50;1.15;;;0.38;;
26806;SDS011;14380;49.910;6.792;2023-08-30T13:33:16;0.40;;;0.40;;
26806;SDS011;14380;49.910;6.792;2023-08-30T13:35:43;1.00;;;0.60;;
26806;SDS011;14380;49.910;6.792;2023-08-30T13:38:15;0.90;;;0.80;;
26806;SDS011;14380;49.910;6.792;2023-08-30T13:40:43;1.27;;;1.02;;
26806;SDS011;14380;49.910;6.792;2023-08-30T13:43:09;0.60;;;0.60;;
26806;SDS011;14380;49.910;6.792;2023-08-30T13:45:36;1.00;;;0.90;;
26806;SDS011;14380;49.910;6.792;2023-08-30T13:48:02;0.82;;;0.63;;
26806;SDS011;14380;49.910;6.792;2023-08-30T13:50:29;1.30;;;0.80;;
26806;SDS011;14380;49.910;6.792;2023-08-30T13:52:57;1.30;;;0.80;;
26806;SDS011;14380;49.910;6.792;2023-08-30T13:55:24;2.50;;;1.15;;
26806;SDS011;14380;49.910;6.792;2023-08-30T13:57:52;1.30;;;0.73;;
26806;SDS011;14380;49.910;6.792;2023-08-30T14:00:19;1.05;;;0.80;;
26806;SDS011;14380;49.910;6.792;2023-08-30T14:02:46;1.33;;;0.88;;
26806;SDS011;14380;49.910;6.792;2023-08-30T14:05:13;3.25;;;1.83;;
26806;SDS011;14380;49.910;6.792;2023-08-30T14:07:39;0.77;;;0.77;;
26806;SDS011;14380;49.910;6.792;2023-08-30T14:10:06;1.55;;;1.00;;
26806;SDS011;14380;49.910;6.792;2023-08-30T14:12:33;2.30;;;1.00;;
26806;SDS011;14380;49.910;6.792;2023-08-30T14:15:02;1.38;;;0.80;;
26806;SDS011;14380;49.910;6.792;2023-08-30T14:17:29;0.65;;;0.47;;
26806;SDS011;14380;49.910;6.792;2023-08-30T14:19:55;0.60;;;0.47;;
26806;SDS011;14380;49.910;6.792;2023-08-30T14:22:22;1.55;;;0.75;;
26806;SDS011;14380;49.910;6.792;2023-08-30T14:24:49;0.30;;;0.20;;
26806;SDS011;14380;49.910;6.792;2023-08-30T14:27:15;0.73;;;0.35;;
26806;SDS011;14380;49.910;6.792;2023-08-30T14:29:41;0.50;;;0.22;;
26806;SDS011;14380;49.910;6.792;2023-08-30T14:32:10;0.52;;;0.47;;
26806;SDS011;14380;49.910;6.792;2023-08-30T14:34:36;0.63;;;0.40;;
26806;SDS011;14380;49.910;6.792;2023-08-30T14:37:03;1.33;;;0.20;;
26806;SDS011;14380;49.910;6.792;2023-08-30T14:39:30;0.20;;;0.20;;
26806;SDS011;14380;49.910;6.792;2023-08-30T14:41:56;1.50;;;0.20;;
26806;SDS011;14380;49.910;6.792;2023-08-30T14:44:23;0.45;;;0.20;;
26806;SDS011;14380;49.910;6.792;2023-08-30T14:46:50;0.20;;;0.20;;
26806;SDS011;14380;49.910;6.792;2023-08-30T14:49:18;0.10;;;0.10;;
26806;SDS011;14380;49.910;6.792;2023-08-30T14:51:45;0.30;;;0.30;;